sensor_id;sensor_type;location;lat;lon;timestamp;temperature;humidity
18218;DHT22;9234;49.344;11.120;2022-10-31T00:01:31;9.80;99.90
18218;DHT22;9234;49.344;11.120;2022-10-31T00:04:01;9.80;99.90
18218;DHT22;9234;49.344;11.120;2022-10-31T00:06:30;9.80;99.90
18218;DHT22;9234;49.344;11.120;2022-10-31T00:08:59;9.80;99.90
18218;DHT22;9234;49.344;11.120;2022-10-31T00:11:28;9.70;99.90
18218;DHT22;9234;49.344;11.120;2022-10-31T00:13:57;9.70;99.90
18218;DHT22;9234;49.344;11.120;2022-10-31T00:16:27;9.70;99.90
18218;DHT22;9234;49.344;11.120;2022-10-31T00:18:58;9.70;99.90
18218;DHT22;9234;49.344;11.120;2022-10-31T00:21:28;9.60;99.90
18218;DHT22;9234;49.344;11.120;2022-10-31T00:23:57;9.60;99.90
18218;DHT22;9234;49.344;11.120;2022-10-31T00:26:27;9.60;99.90
18218;DHT22;9234;49.344;11.120;2022-10-31T00:28:56;9.60;99.90
18218;DHT22;9234;49.344;11.120;2022-10-31T00:31:28;9.50;99.90
18218;DHT22;9234;49.344;11.120;2022-10-31T00:33:57;9.50;99.90
18218;DHT22;9234;49.344;11.120;2022-10-31T00:36:26;9.50;99.90
18218;DHT22;9234;49.344;11.120;2022-10-31T00:38:54;9.50;99.90
18218;DHT22;9234;49.344;11.120;2022-10-31T00:41:23;9.50;99.90
18218;DHT22;9234;49.344;11.120;2022-10-31T00:43:51;9.50;99.90
18218;DHT22;9234;49.344;11.120;2022-10-31T00:46:19;9.50;99.90
18218;DHT22;9234;49.344;11.120;2022-10-31T00:48:51;9.40;99.90
18218;DHT22;9234;49.344;11.120;2022-10-31T00:51:19;9.50;99.90
18218;DHT22;9234;49.344;11.120;2022-10-31T00:53:47;9.40;99.90
18218;DHT22;9234;49.344;11.120;2022-10-31T00:56:15;9.40;99.90
18218;DHT22;9234;49.344;11.120;2022-10-31T00:58:44;9.40;99.90
18218;DHT22;9234;49.344;11.120;2022-10-31T01:01:12;9.30;99.90
18218;DHT22;9234;49.344;11.120;2022-10-31T01:03:40;9.30;99.90
18218;DHT22;9234;49.344;11.120;2022-10-31T01:06:13;9.30;99.90
18218;DHT22;9234;49.344;11.120;2022-10-31T01:08:42;9.30;99.90
18218;DHT22;9234;49.344;11.120;2022-10-31T01:11:15;9.30;99.90
18218;DHT22;9234;49.344;11.120;2022-10-31T01:13:44;9.30;99.90
18218;DHT22;9234;49.344;11.120;2022-10-31T01:16:15;9.20;99.90
18218;DHT22;9234;49.344;11.120;2022-10-31T01:18:45;9.20;99.90
18218;DHT22;9234;49.344;11.120;2022-10-31T01:21:17;9.20;99.90
18218;DHT22;9234;49.344;11.120;2022-10-31T01:23:48;9.10;99.90
18218;DHT22;9234;49.344;11.120;2022-10-31T01:26:18;9.10;99.90
18218;DHT22;9234;49.344;11.120;2022-10-31T01:28:49;9.10;99.90
18218;DHT22;9234;49.344;11.120;2022-10-31T01:31:20;9.10;99.90
18218;DHT22;9234;49.344;11.120;2022-10-31T01:33:50;9.10;99.90
18218;DHT22;9234;49.344;11.120;2022-10-31T01:36:21;9.00;99.90
18218;DHT22;9234;49.344;11.120;2022-10-31T01:38:53;9.00;99.90
18218;DHT22;9234;49.344;11.120;2022-10-31T01:41:26;9.00;99.90
18218;DHT22;9234;49.344;11.120;2022-10-31T01:43:58;9.00;99.90
18218;DHT22;9234;49.344;11.120;2022-10-31T01:46:31;9.00;99.90
18218;DHT22;9234;49.344;11.120;2022-10-31T01:49:05;9.00;99.90
18218;DHT22;9234;49.344;11.120;2022-10-31T01:51:41;9.00;99.90
18218;DHT22;9234;49.344;11.120;2022-10-31T01:54:18;9.00;99.90
18218;DHT22;9234;49.344;11.120;2022-10-31T01:56:52;8.90;99.90
18218;DHT22;9234;49.344;11.120;2022-10-31T01:59:27;8.90;99.90
18218;DHT22;9234;49.344;11.120;2022-10-31T02:02:00;8.90;99.90
18218;DHT22;9234;49.344;11.120;2022-10-31T02:04:29;8.90;99.90
18218;DHT22;9234;49.344;11.120;2022-10-31T02:07:03;8.90;99.90
18218;DHT22;9234;49.344;11.120;2022-10-31T02:09:36;8.90;99.90
18218;DHT22;9234;49.344;11.120;2022-10-31T02:12:06;8.90;99.90
18218;DHT22;9234;49.344;11.120;2022-10-31T02:14:35;8.80;99.90
18218;DHT22;9234;49.344;11.120;2022-10-31T02:17:05;8.80;99.90
18218;DHT22;9234;49.344;11.120;2022-10-31T02:19:37;8.80;99.90
18218;DHT22;9234;49.344;11.120;2022-10-31T02:22:26;8.80;99.90
18218;DHT22;9234;49.344;11.120;2022-10-31T02:25:15;8.70;99.90
18218;DHT22;9234;49.344;11.120;2022-10-31T02:28:11;8.70;99.90
18218;DHT22;9234;49.344;11.120;2022-10-31T02:31:12;8.70;99.90
18218;DHT22;9234;49.344;11.120;2022-10-31T02:33:52;8.70;99.90
18218;DHT22;9234;49.344;11.120;2022-10-31T02:36:26;8.70;99.90
18218;DHT22;9234;49.344;11.120;2022-10-31T02:39:08;8.60;99.90
18218;DHT22;9234;49.344;11.120;2022-10-31T02:41:48;8.60;99.90
18218;DHT22;9234;49.344;11.120;2022-10-31T02:44:25;8.60;99.90
18218;DHT22;9234;49.344;11.120;2022-10-31T02:47:05;8.60;99.90
18218;DHT22;9234;49.344;11.120;2022-10-31T02:49:40;8.50;99.90
18218;DHT22;9234;49.344;11.120;2022-10-31T02:52:16;8.50;99.90
18218;DHT22;9234;49.344;11.120;2022-10-31T02:54:47;8.50;99.90
18218;DHT22;9234;49.344;11.120;2022-10-31T02:57:18;8.50;99.90
18218;DHT22;9234;49.344;11.120;2022-10-31T02:59:55;8.50;99.90
18218;DHT22;9234;49.344;11.120;2022-10-31T03:02:43;8.50;99.90
18218;DHT22;9234;49.344;11.120;2022-10-31T03:05:32;8.40;99.90
18218;DHT22;9234;49.344;11.120;2022-10-31T03:08:13;8.40;99.90
18218;DHT22;9234;49.344;11.120;2022-10-31T03:10:52;8.40;99.90
18218;DHT22;9234;49.344;11.120;2022-10-31T03:13:29;8.40;99.90
18218;DHT22;9234;49.344;11.120;2022-10-31T03:16:10;8.30;99.90
18218;DHT22;9234;49.344;11.120;2022-10-31T03:18:50;8.30;99.90
18218;DHT22;9234;49.344;11.120;2022-10-31T03:21:29;8.30;99.90
18218;DHT22;9234;49.344;11.120;2022-10-31T03:24:01;8.20;99.90
18218;DHT22;9234;49.344;11.120;2022-10-31T03:26:35;8.20;99.90
18218;DHT22;9234;49.344;11.120;2022-10-31T03:29:08;8.20;99.90
18218;DHT22;9234;49.344;11.120;2022-10-31T03:31:45;8.20;99.90
18218;DHT22;9234;49.344;11.120;2022-10-31T03:34:19;8.20;99.90
18218;DHT22;9234;49.344;11.120;2022-10-31T03:36:50;8.20;99.90
18218;DHT22;9234;49.344;11.120;2022-10-31T03:39:22;8.20;99.90
18218;DHT22;9234;49.344;11.120;2022-10-31T03:41:54;8.20;99.90
18218;DHT22;9234;49.344;11.120;2022-10-31T03:44:26;8.20;99.90
18218;DHT22;9234;49.344;11.120;2022-10-31T03:47:00;8.20;99.90
18218;DHT22;9234;49.344;11.120;2022-10-31T03:49:32;8.10;99.90
18218;DHT22;9234;49.344;11.120;2022-10-31T03:52:06;8.10;99.90
18218;DHT22;9234;49.344;11.120;2022-10-31T03:54:43;8.10;99.90
18218;DHT22;9234;49.344;11.120;2022-10-31T03:57:18;8.10;99.90
18218;DHT22;9234;49.344;11.120;2022-10-31T03:59:52;8.10;99.90
18218;DHT22;9234;49.344;11.120;2022-10-31T04:02:29;8.00;99.90
18218;DHT22;9234;49.344;11.120;2022-10-31T04:05:02;8.00;99.90
18218;DHT22;9234;49.344;11.120;2022-10-31T04:07:34;8.00;99.90
18218;DHT22;9234;49.344;11.120;2022-10-31T04:10:09;8.00;99.90
18218;DHT22;9234;49.344;11.120;2022-10-31T04:12:44;7.90;99.90
18218;DHT22;9234;49.344;11.120;2022-10-31T04:15:21;7.90;99.90
18218;DHT22;9234;49.344;11.120;2022-10-31T04:17:53;7.90;99.90
18218;DHT22;9234;49.344;11.120;2022-10-31T04:20:32;7.90;99.90
18218;DHT22;9234;49.344;11.120;2022-10-31T04:23:03;7.90;99.90
18218;DHT22;9234;49.344;11.120;2022-10-31T04:25:34;7.90;99.90
18218;DHT22;9234;49.344;11.120;2022-10-31T04:28:03;7.80;99.90
18218;DHT22;9234;49.344;11.120;2022-10-31T04:30:31;7.80;99.90
18218;DHT22;9234;49.344;11.120;2022-10-31T04:32:59;7.80;99.90
18218;DHT22;9234;49.344;11.120;2022-10-31T04:35:28;7.80;99.90
18218;DHT22;9234;49.344;11.120;2022-10-31T04:37:58;7.80;99.90
18218;DHT22;9234;49.344;11.120;2022-10-31T04:40:26;7.80;99.90
18218;DHT22;9234;49.344;11.120;2022-10-31T04:42:54;7.70;99.90
18218;DHT22;9234;49.344;11.120;2022-10-31T04:45:22;7.70;99.90
18218;DHT22;9234;49.344;11.120;2022-10-31T04:47:52;7.70;99.90
18218;DHT22;9234;49.344;11.120;2022-10-31T04:50:21;7.70;99.90
18218;DHT22;9234;49.344;11.120;2022-10-31T04:52:50;7.70;99.90
18218;DHT22;9234;49.344;11.120;2022-10-31T04:55:24;7.70;99.90
18218;DHT22;9234;49.344;11.120;2022-10-31T04:58:11;7.60;99.90
18218;DHT22;9234;49.344;11.120;2022-10-31T05:00:39;7.70;99.90
18218;DHT22;9234;49.344;11.120;2022-10-31T05:03:08;7.60;99.90
18218;DHT22;9234;49.344;11.120;2022-10-31T05:05:36;7.60;99.90
18218;DHT22;9234;49.344;11.120;2022-10-31T05:08:05;7.60;99.90
18218;DHT22;9234;49.344;11.120;2022-10-31T05:10:34;7.60;99.90
18218;DHT22;9234;49.344;11.120;2022-10-31T05:13:04;7.60;99.90
18218;DHT22;9234;49.344;11.120;2022-10-31T05:15:52;7.60;99.90
18218;DHT22;9234;49.344;11.120;2022-10-31T05:18:50;7.50;99.90
18218;DHT22;9234;49.344;11.120;2022-10-31T05:21:27;7.50;99.90
18218;DHT22;9234;49.344;11.120;2022-10-31T05:23:59;7.50;99.90
18218;DHT22;9234;49.344;11.120;2022-10-31T05:26:30;7.50;99.90
18218;DHT22;9234;49.344;11.120;2022-10-31T05:28:59;7.50;99.90
18218;DHT22;9234;49.344;11.120;2022-10-31T05:31:27;7.50;99.90
18218;DHT22;9234;49.344;11.120;2022-10-31T05:33:56;7.50;99.90
18218;DHT22;9234;49.344;11.120;2022-10-31T05:36:42;7.50;99.90
18218;DHT22;9234;49.344;11.120;2022-10-31T05:39:19;7.50;99.90
18218;DHT22;9234;49.344;11.120;2022-10-31T05:41:52;7.50;99.90
18218;DHT22;9234;49.344;11.120;2022-10-31T05:44:27;7.40;99.90
18218;DHT22;9234;49.344;11.120;2022-10-31T05:47:15;7.40;99.90
18218;DHT22;9234;49.344;11.120;2022-10-31T05:50:16;7.40;99.90
18218;DHT22;9234;49.344;11.120;2022-10-31T05:52:47;7.40;99.90
18218;DHT22;9234;49.344;11.120;2022-10-31T05:55:33;7.40;99.90
18218;DHT22;9234;49.344;11.120;2022-10-31T05:58:11;7.40;99.90
18218;DHT22;9234;49.344;11.120;2022-10-31T06:00:47;7.30;99.90
18218;DHT22;9234;49.344;11.120;2022-10-31T06:03:15;7.40;99.90
18218;DHT22;9234;49.344;11.120;2022-10-31T06:06:01;7.40;99.90
18218;DHT22;9234;49.344;11.120;2022-10-31T06:08:36;7.40;99.90
18218;DHT22;9234;49.344;11.120;2022-10-31T06:11:10;7.40;99.90
18218;DHT22;9234;49.344;11.120;2022-10-31T06:13:58;7.40;99.90
18218;DHT22;9234;49.344;11.120;2022-10-31T06:16:34;7.40;99.90
18218;DHT22;9234;49.344;11.120;2022-10-31T06:19:25;7.40;99.90
18218;DHT22;9234;49.344;11.120;2022-10-31T06:21:53;7.50;99.90
18218;DHT22;9234;49.344;11.120;2022-10-31T06:24:21;7.50;99.90
18218;DHT22;9234;49.344;11.120;2022-10-31T06:26:53;7.50;99.90
18218;DHT22;9234;49.344;11.120;2022-10-31T06:29:22;7.60;99.90
18218;DHT22;9234;49.344;11.120;2022-10-31T06:32:14;7.60;99.90
18218;DHT22;9234;49.344;11.120;2022-10-31T06:34:44;7.60;99.90
18218;DHT22;9234;49.344;11.120;2022-10-31T06:37:15;7.70;99.90
18218;DHT22;9234;49.344;11.120;2022-10-31T06:39:46;7.70;99.90
18218;DHT22;9234;49.344;11.120;2022-10-31T06:42:15;7.70;99.90
18218;DHT22;9234;49.344;11.120;2022-10-31T06:44:45;7.80;99.90
18218;DHT22;9234;49.344;11.120;2022-10-31T06:47:51;7.80;99.90
18218;DHT22;9234;49.344;11.120;2022-10-31T06:51:00;7.90;99.90
18218;DHT22;9234;49.344;11.120;2022-10-31T06:53:29;7.90;99.90
18218;DHT22;9234;49.344;11.120;2022-10-31T06:55:57;7.90;99.90
18218;DHT22;9234;49.344;11.120;2022-10-31T06:58:26;8.00;99.90
18218;DHT22;9234;49.344;11.120;2022-10-31T07:01:00;8.00;99.90
18218;DHT22;9234;49.344;11.120;2022-10-31T07:03:29;8.00;99.90
18218;DHT22;9234;49.344;11.120;2022-10-31T07:05:57;8.10;99.90
18218;DHT22;9234;49.344;11.120;2022-10-31T07:08:26;8.10;99.90
18218;DHT22;9234;49.344;11.120;2022-10-31T07:10:56;8.10;99.90
18218;DHT22;9234;49.344;11.120;2022-10-31T07:13:26;8.20;99.90
18218;DHT22;9234;49.344;11.120;2022-10-31T07:16:06;8.20;99.90
18218;DHT22;9234;49.344;11.120;2022-10-31T07:18:37;8.30;99.90
18218;DHT22;9234;49.344;11.120;2022-10-31T07:21:05;8.30;99.90
18218;DHT22;9234;49.344;11.120;2022-10-31T07:23:34;8.40;99.90
18218;DHT22;9234;49.344;11.120;2022-10-31T07:26:22;8.50;99.90
18218;DHT22;9234;49.344;11.120;2022-10-31T07:28:51;8.50;99.90
18218;DHT22;9234;49.344;11.120;2022-10-31T07:31:23;8.60;99.90
18218;DHT22;9234;49.344;11.120;2022-10-31T07:33:54;8.70;99.90
18218;DHT22;9234;49.344;11.120;2022-10-31T07:36:25;8.80;99.90
18218;DHT22;9234;49.344;11.120;2022-10-31T07:38:58;8.90;99.90
18218;DHT22;9234;49.344;11.120;2022-10-31T07:41:30;8.90;99.90
18218;DHT22;9234;49.344;11.120;2022-10-31T07:43:58;9.00;99.90
18218;DHT22;9234;49.344;11.120;2022-10-31T07:46:46;9.10;99.90
18218;DHT22;9234;49.344;11.120;2022-10-31T07:49:33;9.20;99.90
18218;DHT22;9234;49.344;11.120;2022-10-31T07:52:20;9.30;99.90
18218;DHT22;9234;49.344;11.120;2022-10-31T07:55:07;9.40;99.90
18218;DHT22;9234;49.344;11.120;2022-10-31T07:57:36;9.50;99.90
18218;DHT22;9234;49.344;11.120;2022-10-31T08:00:07;9.60;99.90
18218;DHT22;9234;49.344;11.120;2022-10-31T08:02:44;9.70;99.90
18218;DHT22;9234;49.344;11.120;2022-10-31T08:05:39;9.80;99.90
18218;DHT22;9234;49.344;11.120;2022-10-31T08:08:33;9.90;99.90
18218;DHT22;9234;49.344;11.120;2022-10-31T08:11:05;10.10;99.90
18218;DHT22;9234;49.344;11.120;2022-10-31T08:13:33;10.20;99.90
18218;DHT22;9234;49.344;11.120;2022-10-31T08:16:02;10.30;99.90
18218;DHT22;9234;49.344;11.120;2022-10-31T08:18:36;10.40;99.90
18218;DHT22;9234;49.344;11.120;2022-10-31T08:21:08;10.60;99.90
18218;DHT22;9234;49.344;11.120;2022-10-31T08:23:37;10.70;99.90
18218;DHT22;9234;49.344;11.120;2022-10-31T08:26:06;10.80;99.90
18218;DHT22;9234;49.344;11.120;2022-10-31T08:28:35;10.90;99.90
18218;DHT22;9234;49.344;11.120;2022-10-31T08:31:03;11.00;99.90
18218;DHT22;9234;49.344;11.120;2022-10-31T08:33:39;11.10;99.90
18218;DHT22;9234;49.344;11.120;2022-10-31T08:36:28;11.30;99.90
18218;DHT22;9234;49.344;11.120;2022-10-31T08:39:06;11.40;99.90
18218;DHT22;9234;49.344;11.120;2022-10-31T08:41:34;11.50;99.90
18218;DHT22;9234;49.344;11.120;2022-10-31T08:44:06;11.60;99.90
18218;DHT22;9234;49.344;11.120;2022-10-31T08:46:36;11.70;99.90
18218;DHT22;9234;49.344;11.120;2022-10-31T08:49:05;11.90;99.90
18218;DHT22;9234;49.344;11.120;2022-10-31T08:51:33;12.00;99.90
18218;DHT22;9234;49.344;11.120;2022-10-31T08:54:02;12.20;99.90
18218;DHT22;9234;49.344;11.120;2022-10-31T08:56:30;12.30;99.90
18218;DHT22;9234;49.344;11.120;2022-10-31T08:58:59;12.50;99.90
18218;DHT22;9234;49.344;11.120;2022-10-31T09:01:50;12.60;99.90
18218;DHT22;9234;49.344;11.120;2022-10-31T09:04:20;12.70;99.90
18218;DHT22;9234;49.344;11.120;2022-10-31T09:06:48;12.90;99.90
18218;DHT22;9234;49.344;11.120;2022-10-31T09:09:37;13.00;99.90
18218;DHT22;9234;49.344;11.120;2022-10-31T09:12:05;13.10;99.90
18218;DHT22;9234;49.344;11.120;2022-10-31T09:14:52;13.30;99.90
18218;DHT22;9234;49.344;11.120;2022-10-31T09:17:25;13.50;99.90
18218;DHT22;9234;49.344;11.120;2022-10-31T09:20:15;13.60;99.90
18218;DHT22;9234;49.344;11.120;2022-10-31T09:22:44;13.70;99.90
18218;DHT22;9234;49.344;11.120;2022-10-31T09:25:12;13.90;99.90
18218;DHT22;9234;49.344;11.120;2022-10-31T09:27:45;14.00;99.90
18218;DHT22;9234;49.344;11.120;2022-10-31T09:30:14;14.10;99.90
18218;DHT22;9234;49.344;11.120;2022-10-31T09:32:42;14.30;99.90
18218;DHT22;9234;49.344;11.120;2022-10-31T09:35:11;14.40;99.90
18218;DHT22;9234;49.344;11.120;2022-10-31T09:37:40;14.60;99.90
18218;DHT22;9234;49.344;11.120;2022-10-31T09:40:09;14.70;99.90
18218;DHT22;9234;49.344;11.120;2022-10-31T09:42:54;14.80;99.90
18218;DHT22;9234;49.344;11.120;2022-10-31T09:45:32;15.00;99.90
18218;DHT22;9234;49.344;11.120;2022-10-31T09:48:26;15.10;99.90
18218;DHT22;9234;49.344;11.120;2022-10-31T09:51:17;15.30;99.90
18218;DHT22;9234;49.344;11.120;2022-10-31T09:54:03;15.50;99.90
18218;DHT22;9234;49.344;11.120;2022-10-31T09:56:37;15.70;99.90
18218;DHT22;9234;49.344;11.120;2022-10-31T09:59:11;15.90;99.90
18218;DHT22;9234;49.344;11.120;2022-10-31T10:02:00;16.00;99.90
18218;DHT22;9234;49.344;11.120;2022-10-31T10:04:38;16.20;99.90
18218;DHT22;9234;49.344;11.120;2022-10-31T10:07:22;16.40;99.90
18218;DHT22;9234;49.344;11.120;2022-10-31T10:10:00;16.60;99.90
18218;DHT22;9234;49.344;11.120;2022-10-31T10:13:11;16.80;99.90
18218;DHT22;9234;49.344;11.120;2022-10-31T10:16:08;17.00;99.90
18218;DHT22;9234;49.344;11.120;2022-10-31T10:18:52;17.20;99.90
18218;DHT22;9234;49.344;11.120;2022-10-31T10:21:38;17.30;99.90
18218;DHT22;9234;49.344;11.120;2022-10-31T10:24:21;17.50;99.90
18218;DHT22;9234;49.344;11.120;2022-10-31T10:27:20;17.60;99.90
18218;DHT22;9234;49.344;11.120;2022-10-31T10:30:00;17.80;99.90
18218;DHT22;9234;49.344;11.120;2022-10-31T10:32:42;18.00;99.90
18218;DHT22;9234;49.344;11.120;2022-10-31T10:35:22;18.20;99.90
18218;DHT22;9234;49.344;11.120;2022-10-31T10:37:56;18.40;99.90
18218;DHT22;9234;49.344;11.120;2022-10-31T10:40:30;18.50;99.90
18218;DHT22;9234;49.344;11.120;2022-10-31T10:43:12;18.70;99.90
18218;DHT22;9234;49.344;11.120;2022-10-31T10:46:16;18.90;99.90
18218;DHT22;9234;49.344;11.120;2022-10-31T10:49:12;19.10;99.90
18218;DHT22;9234;49.344;11.120;2022-10-31T10:51:50;19.30;99.90
18218;DHT22;9234;49.344;11.120;2022-10-31T10:54:49;19.50;99.90
18218;DHT22;9234;49.344;11.120;2022-10-31T10:57:38;19.60;99.90
18218;DHT22;9234;49.344;11.120;2022-10-31T11:00:20;19.70;99.90
18218;DHT22;9234;49.344;11.120;2022-10-31T11:02:50;19.80;99.90
18218;DHT22;9234;49.344;11.120;2022-10-31T11:05:24;19.90;99.90
18218;DHT22;9234;49.344;11.120;2022-10-31T11:07:55;20.00;99.90
18218;DHT22;9234;49.344;11.120;2022-10-31T11:10:23;20.20;99.90
18218;DHT22;9234;49.344;11.120;2022-10-31T11:13:06;20.20;99.90
18218;DHT22;9234;49.344;11.120;2022-10-31T11:15:56;20.30;99.90
18218;DHT22;9234;49.344;11.120;2022-10-31T11:18:27;20.40;99.90
18218;DHT22;9234;49.344;11.120;2022-10-31T11:21:00;20.50;99.90
18218;DHT22;9234;49.344;11.120;2022-10-31T11:23:31;20.60;99.90
18218;DHT22;9234;49.344;11.120;2022-10-31T11:26:02;20.70;99.90
18218;DHT22;9234;49.344;11.120;2022-10-31T11:28:32;20.80;99.90
18218;DHT22;9234;49.344;11.120;2022-10-31T11:31:08;20.90;99.90
18218;DHT22;9234;49.344;11.120;2022-10-31T11:33:45;21.00;99.90
18218;DHT22;9234;49.344;11.120;2022-10-31T11:36:18;21.10;99.90
18218;DHT22;9234;49.344;11.120;2022-10-31T11:38:51;21.10;99.90
18218;DHT22;9234;49.344;11.120;2022-10-31T11:41:25;21.20;99.90
18218;DHT22;9234;49.344;11.120;2022-10-31T11:43:59;21.30;99.90
18218;DHT22;9234;49.344;11.120;2022-10-31T11:46:34;21.40;99.90
18218;DHT22;9234;49.344;11.120;2022-10-31T11:49:05;21.40;99.90
18218;DHT22;9234;49.344;11.120;2022-10-31T11:51:39;21.40;99.90
18218;DHT22;9234;49.344;11.120;2022-10-31T11:54:19;21.60;99.90
18218;DHT22;9234;49.344;11.120;2022-10-31T11:56:51;21.70;99.90
18218;DHT22;9234;49.344;11.120;2022-10-31T11:59:24;21.80;99.90
18218;DHT22;9234;49.344;11.120;2022-10-31T12:01:57;21.90;99.90
18218;DHT22;9234;49.344;11.120;2022-10-31T12:04:35;21.90;99.90
18218;DHT22;9234;49.344;11.120;2022-10-31T12:07:07;22.10;99.90
18218;DHT22;9234;49.344;11.120;2022-10-31T12:09:36;22.20;99.90
18218;DHT22;9234;49.344;11.120;2022-10-31T12:12:23;22.40;99.90
18218;DHT22;9234;49.344;11.120;2022-10-31T12:15:25;22.50;99.90
18218;DHT22;9234;49.344;11.120;2022-10-31T12:18:14;22.60;99.90
18218;DHT22;9234;49.344;11.120;2022-10-31T12:21:12;22.70;99.90
18218;DHT22;9234;49.344;11.120;2022-10-31T12:24:03;22.80;99.90
18218;DHT22;9234;49.344;11.120;2022-10-31T12:26:46;22.90;99.90
18218;DHT22;9234;49.344;11.120;2022-10-31T12:29:32;23.00;99.90
18218;DHT22;9234;49.344;11.120;2022-10-31T12:32:29;23.10;99.90
18218;DHT22;9234;49.344;11.120;2022-10-31T12:35:17;23.10;99.90
18218;DHT22;9234;49.344;11.120;2022-10-31T12:38:07;23.20;99.90
18218;DHT22;9234;49.344;11.120;2022-10-31T12:40:54;23.30;99.90
18218;DHT22;9234;49.344;11.120;2022-10-31T12:43:36;23.40;99.90
18218;DHT22;9234;49.344;11.120;2022-10-31T12:46:19;23.60;99.90
18218;DHT22;9234;49.344;11.120;2022-10-31T12:49:16;23.80;99.90
18218;DHT22;9234;49.344;11.120;2022-10-31T12:52:07;23.90;99.90
18218;DHT22;9234;49.344;11.120;2022-10-31T12:54:55;24.00;99.90
18218;DHT22;9234;49.344;11.120;2022-10-31T12:57:38;24.10;99.90
18218;DHT22;9234;49.344;11.120;2022-10-31T13:00:14;24.20;99.90
18218;DHT22;9234;49.344;11.120;2022-10-31T13:02:48;24.20;99.90
18218;DHT22;9234;49.344;11.120;2022-10-31T13:05:29;24.10;99.90
18218;DHT22;9234;49.344;11.120;2022-10-31T13:08:06;23.90;99.90
18218;DHT22;9234;49.344;11.120;2022-10-31T13:10:47;23.80;99.90
18218;DHT22;9234;49.344;11.120;2022-10-31T13:13:23;23.60;99.90
18218;DHT22;9234;49.344;11.120;2022-10-31T13:15:57;23.50;99.90
18218;DHT22;9234;49.344;11.120;2022-10-31T13:18:31;23.40;99.90
18218;DHT22;9234;49.344;11.120;2022-10-31T13:21:07;23.30;99.90
18218;DHT22;9234;49.344;11.120;2022-10-31T13:23:40;23.20;99.90
18218;DHT22;9234;49.344;11.120;2022-10-31T13:26:21;23.20;99.90
18218;DHT22;9234;49.344;11.120;2022-10-31T13:29:02;23.10;99.90
18218;DHT22;9234;49.344;11.120;2022-10-31T13:31:40;23.00;99.90
18218;DHT22;9234;49.344;11.120;2022-10-31T13:34:18;22.90;99.90
18218;DHT22;9234;49.344;11.120;2022-10-31T13:37:00;22.80;99.90
18218;DHT22;9234;49.344;11.120;2022-10-31T13:39:45;22.80;99.90
18218;DHT22;9234;49.344;11.120;2022-10-31T13:42:23;22.70;99.90
18218;DHT22;9234;49.344;11.120;2022-10-31T13:45:11;22.70;99.90
18218;DHT22;9234;49.344;11.120;2022-10-31T13:47:41;22.80;99.90
18218;DHT22;9234;49.344;11.120;2022-10-31T13:50:21;22.80;99.90
18218;DHT22;9234;49.344;11.120;2022-10-31T13:52:51;22.90;99.90
18218;DHT22;9234;49.344;11.120;2022-10-31T13:55:37;23.00;99.90
18218;DHT22;9234;49.344;11.120;2022-10-31T13:58:22;23.20;99.90
18218;DHT22;9234;49.344;11.120;2022-10-31T14:01:02;23.20;99.90
18218;DHT22;9234;49.344;11.120;2022-10-31T14:03:43;23.20;99.90
18218;DHT22;9234;49.344;11.120;2022-10-31T14:06:40;23.20;99.90
18218;DHT22;9234;49.344;11.120;2022-10-31T14:09:25;23.10;99.90
18218;DHT22;9234;49.344;11.120;2022-10-31T14:12:00;23.00;99.90
18218;DHT22;9234;49.344;11.120;2022-10-31T14:14:35;22.90;99.90
18218;DHT22;9234;49.344;11.120;2022-10-31T14:17:18;22.80;99.90
18218;DHT22;9234;49.344;11.120;2022-10-31T14:20:34;22.60;99.90
18218;DHT22;9234;49.344;11.120;2022-10-31T14:23:35;22.40;99.90
18218;DHT22;9234;49.344;11.120;2022-10-31T14:26:18;22.20;99.90
18218;DHT22;9234;49.344;11.120;2022-10-31T14:28:51;22.10;99.90
18218;DHT22;9234;49.344;11.120;2022-10-31T14:31:36;21.90;99.90
18218;DHT22;9234;49.344;11.120;2022-10-31T14:34:23;21.80;99.90
18218;DHT22;9234;49.344;11.120;2022-10-31T14:37:10;21.60;99.90
18218;DHT22;9234;49.344;11.120;2022-10-31T14:40:29;21.50;99.90
18218;DHT22;9234;49.344;11.120;2022-10-31T14:43:23;21.40;99.90
18218;DHT22;9234;49.344;11.120;2022-10-31T14:46:10;21.20;99.90
18218;DHT22;9234;49.344;11.120;2022-10-31T14:48:56;21.10;99.90
18218;DHT22;9234;49.344;11.120;2022-10-31T14:51:36;20.90;99.90
18218;DHT22;9234;49.344;11.120;2022-10-31T14:54:11;20.80;99.90
18218;DHT22;9234;49.344;11.120;2022-10-31T14:56:48;20.60;99.90
18218;DHT22;9234;49.344;11.120;2022-10-31T14:59:26;20.50;99.90
18218;DHT22;9234;49.344;11.120;2022-10-31T15:02:06;20.30;99.90
18218;DHT22;9234;49.344;11.120;2022-10-31T15:04:39;20.20;99.90
18218;DHT22;9234;49.344;11.120;2022-10-31T15:07:12;20.10;99.90
18218;DHT22;9234;49.344;11.120;2022-10-31T15:09:57;20.00;99.90
18218;DHT22;9234;49.344;11.120;2022-10-31T15:12:28;19.90;99.90
18218;DHT22;9234;49.344;11.120;2022-10-31T15:14:58;19.70;99.90
18218;DHT22;9234;49.344;11.120;2022-10-31T15:17:44;19.60;99.90
18218;DHT22;9234;49.344;11.120;2022-10-31T15:20:19;19.50;99.90
18218;DHT22;9234;49.344;11.120;2022-10-31T15:22:50;19.40;99.90
18218;DHT22;9234;49.344;11.120;2022-10-31T15:25:20;19.30;99.90
18218;DHT22;9234;49.344;11.120;2022-10-31T15:27:50;19.20;99.90
18218;DHT22;9234;49.344;11.120;2022-10-31T15:30:22;19.10;99.90
18218;DHT22;9234;49.344;11.120;2022-10-31T15:32:53;19.00;99.90
18218;DHT22;9234;49.344;11.120;2022-10-31T15:35:26;18.90;99.90
18218;DHT22;9234;49.344;11.120;2022-10-31T15:37:57;18.80;99.90
18218;DHT22;9234;49.344;11.120;2022-10-31T15:40:27;18.80;99.90
18218;DHT22;9234;49.344;11.120;2022-10-31T15:42:58;18.70;99.90
18218;DHT22;9234;49.344;11.120;2022-10-31T15:45:28;18.60;99.90
18218;DHT22;9234;49.344;11.120;2022-10-31T15:48:00;18.50;99.90
18218;DHT22;9234;49.344;11.120;2022-10-31T15:50:33;18.40;99.90
18218;DHT22;9234;49.344;11.120;2022-10-31T15:53:06;18.30;99.90
18218;DHT22;9234;49.344;11.120;2022-10-31T15:55:47;18.30;99.90
18218;DHT22;9234;49.344;11.120;2022-10-31T15:58:18;18.10;99.90
18218;DHT22;9234;49.344;11.120;2022-10-31T16:00:57;18.00;99.90
18218;DHT22;9234;49.344;11.120;2022-10-31T16:03:30;18.00;99.90
18218;DHT22;9234;49.344;11.120;2022-10-31T16:06:02;17.80;99.90
18218;DHT22;9234;49.344;11.120;2022-10-31T16:08:33;17.70;99.90
18218;DHT22;9234;49.344;11.120;2022-10-31T16:11:16;17.60;99.90
18218;DHT22;9234;49.344;11.120;2022-10-31T16:13:55;17.50;99.90
18218;DHT22;9234;49.344;11.120;2022-10-31T16:16:26;17.40;99.90
18218;DHT22;9234;49.344;11.120;2022-10-31T16:19:05;17.30;99.90
18218;DHT22;9234;49.344;11.120;2022-10-31T16:21:44;17.20;99.90
18218;DHT22;9234;49.344;11.120;2022-10-31T16:24:18;17.00;99.90
18218;DHT22;9234;49.344;11.120;2022-10-31T16:26:51;16.90;99.90
18218;DHT22;9234;49.344;11.120;2022-10-31T16:29:26;16.80;99.90
18218;DHT22;9234;49.344;11.120;2022-10-31T16:31:59;16.70;99.90
18218;DHT22;9234;49.344;11.120;2022-10-31T16:34:29;16.70;99.90
18218;DHT22;9234;49.344;11.120;2022-10-31T16:36:57;16.60;99.90